sensor_id;sensor_type;location;lat;lon;timestamp;pressure;altitude;pressure_sealevel;temperature;humidity
51807;BME280;37865;51.304;9.536;2023-05-14T00:00:25;100247.88;;;8.80;100.00
51807;BME280;37865;51.304;9.536;2023-05-14T00:02:50;100248.91;;;8.79;100.00
51807;BME280;37865;51.304;9.536;2023-05-14T00:05:16;100245.41;;;8.78;100.00
51807;BME280;37865;51.304;9.536;2023-05-14T00:07:41;100244.19;;;8.74;100.00
51807;BME280;37865;51.304;9.536;2023-05-14T00:10:06;100238.63;;;8.69;100.00
51807;BME280;37865;51.304;9.536;2023-05-14T00:12:32;100240.28;;;8.70;100.00
51807;BME280;37865;51.304;9.536;2023-05-14T00:14:57;100244.66;;;8.71;100.00
51807;BME280;37865;51.304;9.536;2023-05-14T00:17:23;100243.59;;;8.72;100.00
51807;BME280;37865;51.304;9.536;2023-05-14T00:19:48;100238.84;;;8.68;100.00
51807;BME280;37865;51.304;9.536;2023-05-14T00:22:13;100238.94;;;8.61;100.00
51807;BME280;37865;51.304;9.536;2023-05-14T00:24:39;100237.97;;;8.56;100.00
51807;BME280;37865;51.304;9.536;2023-05-14T00:27:04;100233.44;;;8.50;100.00
51807;BME280;37865;51.304;9.536;2023-05-14T00:29:30;100238.75;;;8.45;100.00
51807;BME280;37865;51.304;9.536;2023-05-14T00:31:56;100231.03;;;8.42;100.00
51807;BME280;37865;51.304;9.536;2023-05-14T00:34:21;100224.41;;;8.38;100.00
51807;BME280;37865;51.304;9.536;2023-05-14T00:36:46;100226.16;;;8.32;100.00
51807;BME280;37865;51.304;9.536;2023-05-14T00:39:12;100212.44;;;8.27;100.00
51807;BME280;37865;51.304;9.536;2023-05-14T00:41:38;100212.47;;;8.21;100.00
51807;BME280;37865;51.304;9.536;2023-05-14T00:44:03;100222.16;;;8.17;100.00
51807;BME280;37865;51.304;9.536;2023-05-14T00:46:29;100212.00;;;8.12;100.00
51807;BME280;37865;51.304;9.536;2023-05-14T00:48:54;100210.91;;;8.13;100.00
51807;BME280;37865;51.304;9.536;2023-05-14T00:51:20;100209.63;;;8.16;100.00
51807;BME280;37865;51.304;9.536;2023-05-14T00:53:46;100213.19;;;8.16;100.00
51807;BME280;37865;51.304;9.536;2023-05-14T00:56:11;100213.63;;;8.13;100.00
51807;BME280;37865;51.304;9.536;2023-05-14T00:58:37;100206.75;;;8.10;100.00
51807;BME280;37865;51.304;9.536;2023-05-14T01:01:03;100205.34;;;8.08;100.00
51807;BME280;37865;51.304;9.536;2023-05-14T01:03:30;100208.28;;;8.06;100.00
51807;BME280;37865;51.304;9.536;2023-05-14T01:06:13;100212.28;;;8.04;100.00
51807;BME280;37865;51.304;9.536;2023-05-14T01:09:04;100216.13;;;7.96;100.00
51807;BME280;37865;51.304;9.536;2023-05-14T01:11:39;100216.22;;;7.90;100.00
51807;BME280;37865;51.304;9.536;2023-05-14T01:16:44;100218.56;;;7.86;100.00
51807;BME280;37865;51.304;9.536;2023-05-14T01:19:28;100208.38;;;7.82;100.00
51807;BME280;37865;51.304;9.536;2023-05-14T01:21:56;100217.78;;;7.79;100.00
51807;BME280;37865;51.304;9.536;2023-05-14T01:24:21;100217.59;;;7.81;100.00
51807;BME280;37865;51.304;9.536;2023-05-14T01:26:47;100215.06;;;7.79;100.00
51807;BME280;37865;51.304;9.536;2023-05-14T01:29:20;100210.94;;;7.77;100.00
51807;BME280;37865;51.304;9.536;2023-05-14T01:31:48;100211.63;;;7.72;100.00
51807;BME280;37865;51.304;9.536;2023-05-14T01:34:14;100211.69;;;7.66;100.00
51807;BME280;37865;51.304;9.536;2023-05-14T01:36:41;100210.72;;;7.60;100.00
51807;BME280;37865;51.304;9.536;2023-05-14T01:39:07;100203.44;;;7.54;100.00
51807;BME280;37865;51.304;9.536;2023-05-14T01:41:34;100213.31;;;7.49;100.00
51807;BME280;37865;51.304;9.536;2023-05-14T01:44:02;100211.06;;;7.46;100.00
51807;BME280;37865;51.304;9.536;2023-05-14T01:46:31;100208.72;;;7.49;100.00
51807;BME280;37865;51.304;9.536;2023-05-14T01:48:56;100211.22;;;7.51;100.00
51807;BME280;37865;51.304;9.536;2023-05-14T01:51:22;100205.78;;;7.51;100.00
51807;BME280;37865;51.304;9.536;2023-05-14T01:53:47;100207.47;;;7.52;100.00
51807;BME280;37865;51.304;9.536;2023-05-14T01:56:12;100207.47;;;7.52;100.00
51807;BME280;37865;51.304;9.536;2023-05-14T01:58:38;100204.16;;;7.50;100.00
51807;BME280;37865;51.304;9.536;2023-05-14T02:01:03;100204.56;;;7.47;100.00
51807;BME280;37865;51.304;9.536;2023-05-14T02:03:28;100208.78;;;7.43;100.00
51807;BME280;37865;51.304;9.536;2023-05-14T02:05:54;100205.91;;;7.38;100.00
51807;BME280;37865;51.304;9.536;2023-05-14T02:08:19;100200.47;;;7.38;100.00
51807;BME280;37865;51.304;9.536;2023-05-14T02:10:45;100203.06;;;7.32;100.00
51807;BME280;37865;51.304;9.536;2023-05-14T02:13:10;100202.88;;;7.27;100.00
51807;BME280;37865;51.304;9.536;2023-05-14T02:15:35;100198.34;;;7.21;100.00
51807;BME280;37865;51.304;9.536;2023-05-14T02:18:01;100192.31;;;7.19;100.00
51807;BME280;37865;51.304;9.536;2023-05-14T02:20:26;100189.84;;;7.18;100.00
51807;BME280;37865;51.304;9.536;2023-05-14T02:22:51;100188.78;;;7.19;100.00
51807;BME280;37865;51.304;9.536;2023-05-14T02:25:17;100184.19;;;7.19;100.00
51807;BME280;37865;51.304;9.536;2023-05-14T02:27:42;100186.91;;;7.19;100.00
51807;BME280;37865;51.304;9.536;2023-05-14T02:30:08;100188.56;;;7.20;100.00
51807;BME280;37865;51.304;9.536;2023-05-14T02:32:33;100192.09;;;7.21;100.00
51807;BME280;37865;51.304;9.536;2023-05-14T02:34:59;100187.97;;;7.18;100.00
51807;BME280;37865;51.304;9.536;2023-05-14T02:37:24;100186.94;;;7.13;100.00
51807;BME280;37865;51.304;9.536;2023-05-14T02:39:49;100188.44;;;7.09;100.00
51807;BME280;37865;51.304;9.536;2023-05-14T02:42:15;100193.91;;;7.02;100.00
51807;BME280;37865;51.304;9.536;2023-05-14T02:44:40;100194.53;;;7.04;100.00
51807;BME280;37865;51.304;9.536;2023-05-14T02:47:05;100188.91;;;7.06;100.00
51807;BME280;37865;51.304;9.536;2023-05-14T02:49:31;100187.00;;;7.06;100.00
51807;BME280;37865;51.304;9.536;2023-05-14T02:51:56;100186.56;;;7.09;100.00
51807;BME280;37865;51.304;9.536;2023-05-14T02:54:21;100180.25;;;7.15;100.00
51807;BME280;37865;51.304;9.536;2023-05-14T02:56:47;100182.69;;;7.23;100.00
51807;BME280;37865;51.304;9.536;2023-05-14T02:59:12;100179.47;;;7.33;100.00
51807;BME280;37865;51.304;9.536;2023-05-14T03:01:37;100187.31;;;7.41;100.00
51807;BME280;37865;51.304;9.536;2023-05-14T03:04:04;100173.91;;;7.46;100.00
51807;BME280;37865;51.304;9.536;2023-05-14T03:06:29;100186.56;;;7.52;100.00
51807;BME280;37865;51.304;9.536;2023-05-14T03:08:55;100187.56;;;7.58;100.00
51807;BME280;37865;51.304;9.536;2023-05-14T03:11:20;100178.75;;;7.62;100.00
51807;BME280;37865;51.304;9.536;2023-05-14T03:13:46;100178.06;;;7.67;100.00
51807;BME280;37865;51.304;9.536;2023-05-14T03:16:11;100179.50;;;7.69;100.00
51807;BME280;37865;51.304;9.536;2023-05-14T03:18:37;100173.03;;;7.70;100.00
51807;BME280;37865;51.304;9.536;2023-05-14T03:21:02;100176.69;;;7.76;100.00
51807;BME280;37865;51.304;9.536;2023-05-14T03:23:28;100172.47;;;7.80;100.00
51807;BME280;37865;51.304;9.536;2023-05-14T03:25:56;100175.72;;;7.88;100.00
51807;BME280;37865;51.304;9.536;2023-05-14T03:28:21;100173.97;;;7.94;100.00
51807;BME280;37865;51.304;9.536;2023-05-14T03:30:46;100183.91;;;8.00;100.00
51807;BME280;37865;51.304;9.536;2023-05-14T03:33:12;100178.41;;;8.06;100.00
51807;BME280;37865;51.304;9.536;2023-05-14T03:35:38;100173.13;;;8.11;100.00
51807;BME280;37865;51.304;9.536;2023-05-14T03:38:03;100182.84;;;8.19;100.00
51807;BME280;37865;51.304;9.536;2023-05-14T03:40:29;100181.13;;;8.25;100.00
51807;BME280;37865;51.304;9.536;2023-05-14T03:42:54;100175.00;;;8.29;100.00
51807;BME280;37865;51.304;9.536;2023-05-14T03:45:20;100174.06;;;8.35;100.00
51807;BME280;37865;51.304;9.536;2023-05-14T03:47:45;100174.22;;;8.40;100.00
51807;BME280;37865;51.304;9.536;2023-05-14T03:50:10;100177.09;;;8.45;100.00
51807;BME280;37865;51.304;9.536;2023-05-14T03:52:36;100174.50;;;8.50;100.00
51807;BME280;37865;51.304;9.536;2023-05-14T03:55:02;100171.09;;;8.55;100.00
51807;BME280;37865;51.304;9.536;2023-05-14T03:57:27;100167.69;;;8.59;100.00
51807;BME280;37865;51.304;9.536;2023-05-14T03:59:52;100163.19;;;8.65;100.00
51807;BME280;37865;51.304;9.536;2023-05-14T04:02:18;100166.06;;;8.70;100.00
51807;BME280;37865;51.304;9.536;2023-05-14T04:04:43;100168.66;;;8.76;100.00
51807;BME280;37865;51.304;9.536;2023-05-14T04:07:08;100170.66;;;8.81;100.00
51807;BME280;37865;51.304;9.536;2023-05-14T04:09:33;100176.25;;;8.86;100.00
51807;BME280;37865;51.304;9.536;2023-05-14T04:11:59;100183.72;;;8.90;100.00
51807;BME280;37865;51.304;9.536;2023-05-14T04:14:24;100180.28;;;8.95;100.00
51807;BME280;37865;51.304;9.536;2023-05-14T04:16:50;100176.38;;;9.03;100.00
51807;BME280;37865;51.304;9.536;2023-05-14T04:19:15;100178.16;;;9.09;100.00
51807;BME280;37865;51.304;9.536;2023-05-14T04:21:40;100179.94;;;9.15;100.00
51807;BME280;37865;51.304;9.536;2023-05-14T04:24:06;100179.59;;;9.23;100.00
51807;BME280;37865;51.304;9.536;2023-05-14T04:26:31;100173.19;;;9.29;100.00
51807;BME280;37865;51.304;9.536;2023-05-14T04:28:57;100172.88;;;9.37;100.00
51807;BME280;37865;51.304;9.536;2023-05-14T04:31:26;100174.97;;;9.46;100.00
51807;BME280;37865;51.304;9.536;2023-05-14T04:33:52;100173.78;;;9.54;100.00
51807;BME280;37865;51.304;9.536;2023-05-14T04:36:17;100176.72;;;9.64;100.00
51807;BME280;37865;51.304;9.536;2023-05-14T04:38:42;100178.88;;;9.73;100.00
51807;BME280;37865;51.304;9.536;2023-05-14T04:41:08;100182.88;;;9.83;100.00
51807;BME280;37865;51.304;9.536;2023-05-14T04:43:33;100179.53;;;9.92;100.00
51807;BME280;37865;51.304;9.536;2023-05-14T04:46:00;100178.09;;;10.01;100.00
51807;BME280;37865;51.304;9.536;2023-05-14T04:48:25;100191.13;;;10.11;100.00
51807;BME280;37865;51.304;9.536;2023-05-14T04:50:51;100181.50;;;10.20;100.00
51807;BME280;37865;51.304;9.536;2023-05-14T04:53:16;100192.59;;;10.30;100.00
51807;BME280;37865;51.304;9.536;2023-05-14T04:55:41;100180.22;;;10.39;100.00
51807;BME280;37865;51.304;9.536;2023-05-14T04:58:07;100184.22;;;10.48;100.00
51807;BME280;37865;51.304;9.536;2023-05-14T05:00:33;100187.97;;;10.59;100.00
51807;BME280;37865;51.304;9.536;2023-05-14T05:02:58;100182.69;;;10.69;100.00
51807;BME280;37865;51.304;9.536;2023-05-14T05:05:23;100185.84;;;10.77;100.00
51807;BME280;37865;51.304;9.536;2023-05-14T05:07:48;100179.16;;;10.85;100.00
51807;BME280;37865;51.304;9.536;2023-05-14T05:10:14;100181.47;;;10.93;100.00
51807;BME280;37865;51.304;9.536;2023-05-14T05:12:40;100188.78;;;11.04;100.00
51807;BME280;37865;51.304;9.536;2023-05-14T05:15:06;100189.44;;;11.11;100.00
51807;BME280;37865;51.304;9.536;2023-05-14T05:17:31;100187.34;;;11.18;100.00
51807;BME280;37865;51.304;9.536;2023-05-14T05:19:56;100178.44;;;11.22;100.00
51807;BME280;37865;51.304;9.536;2023-05-14T05:22:22;100183.16;;;11.27;100.00
51807;BME280;37865;51.304;9.536;2023-05-14T05:24:48;100179.94;;;11.30;100.00
51807;BME280;37865;51.304;9.536;2023-05-14T05:27:13;100181.56;;;11.31;100.00
51807;BME280;37865;51.304;9.536;2023-05-14T05:29:39;100180.50;;;11.32;100.00
51807;BME280;37865;51.304;9.536;2023-05-14T05:32:05;100173.47;;;11.36;100.00
51807;BME280;37865;51.304;9.536;2023-05-14T05:34:30;100175.19;;;11.42;100.00
51807;BME280;37865;51.304;9.536;2023-05-14T05:36:56;100172.31;;;11.49;100.00
51807;BME280;37865;51.304;9.536;2023-05-14T05:39:21;100175.09;;;11.54;100.00
51807;BME280;37865;51.304;9.536;2023-05-14T05:41:46;100169.63;;;11.54;100.00
51807;BME280;37865;51.304;9.536;2023-05-14T05:44:12;100164.47;;;11.57;100.00
51807;BME280;37865;51.304;9.536;2023-05-14T05:46:40;100171.44;;;11.65;99.65
51807;BME280;37865;51.304;9.536;2023-05-14T05:49:05;100165.25;;;11.69;99.65
51807;BME280;37865;51.304;9.536;2023-05-14T05:51:31;100176.22;;;11.74;99.27
51807;BME280;37865;51.304;9.536;2023-05-14T05:53:57;100173.00;;;11.77;98.77
51807;BME280;37865;51.304;9.536;2023-05-14T05:56:22;100176.56;;;11.78;97.86
51807;BME280;37865;51.304;9.536;2023-05-14T05:58:48;100176.06;;;11.81;97.92
51807;BME280;37865;51.304;9.536;2023-05-14T06:01:13;100185.47;;;11.90;97.53
51807;BME280;37865;51.304;9.536;2023-05-14T06:03:38;100172.75;;;12.00;97.82
51807;BME280;37865;51.304;9.536;2023-05-14T06:06:04;100178.66;;;12.14;96.84
51807;BME280;37865;51.304;9.536;2023-05-14T06:08:30;100180.75;;;12.29;96.13
51807;BME280;37865;51.304;9.536;2023-05-14T06:10:56;100175.97;;;12.41;95.95
51807;BME280;37865;51.304;9.536;2023-05-14T06:13:21;100179.38;;;12.53;95.23
51807;BME280;37865;51.304;9.536;2023-05-14T06:15:46;100178.69;;;12.67;94.44
51807;BME280;37865;51.304;9.536;2023-05-14T06:18:12;100176.38;;;12.81;93.33
51807;BME280;37865;51.304;9.536;2023-05-14T06:20:37;100172.41;;;12.93;92.39
51807;BME280;37865;51.304;9.536;2023-05-14T06:23:03;100178.03;;;13.09;91.61
51807;BME280;37865;51.304;9.536;2023-05-14T06:25:28;100184.72;;;13.23;90.95
51807;BME280;37865;51.304;9.536;2023-05-14T06:27:53;100181.28;;;13.42;90.16
51807;BME280;37865;51.304;9.536;2023-05-14T06:30:18;100180.88;;;13.60;89.23
51807;BME280;37865;51.304;9.536;2023-05-14T06:32:44;100181.50;;;13.73;88.41
51807;BME280;37865;51.304;9.536;2023-05-14T06:35:09;100178.53;;;13.84;87.72
51807;BME280;37865;51.304;9.536;2023-05-14T06:37:35;100169.06;;;14.02;87.38
51807;BME280;37865;51.304;9.536;2023-05-14T06:40:00;100172.94;;;14.16;86.63
51807;BME280;37865;51.304;9.536;2023-05-14T06:42:26;100170.53;;;14.29;86.21
51807;BME280;37865;51.304;9.536;2023-05-14T06:44:51;100169.75;;;14.44;85.13
51807;BME280;37865;51.304;9.536;2023-05-14T06:47:17;100169.25;;;14.57;84.43
51807;BME280;37865;51.304;9.536;2023-05-14T06:49:42;100170.66;;;14.70;83.38
51807;BME280;37865;51.304;9.536;2023-05-14T06:52:07;100170.69;;;14.85;82.27
51807;BME280;37865;51.304;9.536;2023-05-14T06:54:33;100158.31;;;14.92;81.45
51807;BME280;37865;51.304;9.536;2023-05-14T06:56:58;100159.44;;;14.96;80.41
51807;BME280;37865;51.304;9.536;2023-05-14T06:59:24;100167.69;;;15.11;80.23
51807;BME280;37865;51.304;9.536;2023-05-14T07:01:50;100163.28;;;15.25;79.06
51807;BME280;37865;51.304;9.536;2023-05-14T07:04:15;100151.44;;;15.40;78.11
51807;BME280;37865;51.304;9.536;2023-05-14T07:06:40;100152.53;;;15.54;77.62
51807;BME280;37865;51.304;9.536;2023-05-14T07:09:05;100160.47;;;15.71;76.24
51807;BME280;37865;51.304;9.536;2023-05-14T07:11:31;100151.34;;;15.90;75.29
51807;BME280;37865;51.304;9.536;2023-05-14T07:13:57;100149.16;;;15.97;74.26
51807;BME280;37865;51.304;9.536;2023-05-14T07:16:23;100149.34;;;16.06;73.69
51807;BME280;37865;51.304;9.536;2023-05-14T07:18:48;100139.38;;;16.25;73.36
51807;BME280;37865;51.304;9.536;2023-05-14T07:21:13;100143.38;;;16.48;72.90
51807;BME280;37865;51.304;9.536;2023-05-14T07:23:39;100138.88;;;16.67;71.77
51807;BME280;37865;51.304;9.536;2023-05-14T07:26:05;100138.31;;;16.70;71.01
51807;BME280;37865;51.304;9.536;2023-05-14T07:28:30;100141.84;;;16.75;70.57
51807;BME280;37865;51.304;9.536;2023-05-14T07:30:56;100131.91;;;16.79;70.31
51807;BME280;37865;51.304;9.536;2023-05-14T07:33:23;100128.84;;;16.86;69.80
51807;BME280;37865;51.304;9.536;2023-05-14T07:35:49;100130.34;;;17.02;69.21
51807;BME280;37865;51.304;9.536;2023-05-14T07:38:15;100126.31;;;17.23;68.87
51807;BME280;37865;51.304;9.536;2023-05-14T07:40:40;100122.34;;;17.34;68.28
51807;BME280;37865;51.304;9.536;2023-05-14T07:43:05;100116.88;;;17.58;67.81
51807;BME280;37865;51.304;9.536;2023-05-14T07:45:31;100118.50;;;17.88;67.07
51807;BME280;37865;51.304;9.536;2023-05-14T07:47:56;100114.28;;;18.14;65.59
51807;BME280;37865;51.304;9.536;2023-05-14T07:50:21;100117.16;;;18.27;64.49
51807;BME280;37865;51.304;9.536;2023-05-14T07:52:47;100110.28;;;18.25;64.67
51807;BME280;37865;51.304;9.536;2023-05-14T07:55:12;100113.13;;;18.20;64.19
51807;BME280;37865;51.304;9.536;2023-05-14T07:57:38;100109.22;;;18.21;63.91
51807;BME280;37865;51.304;9.536;2023-05-14T08:00:04;100111.63;;;18.27;64.36
51807;BME280;37865;51.304;9.536;2023-05-14T08:02:32;100111.38;;;18.48;64.06
51807;BME280;37865;51.304;9.536;2023-05-14T08:04:58;100107.03;;;18.60;63.01
51807;BME280;37865;51.304;9.536;2023-05-14T08:07:23;100100.63;;;18.65;62.91
51807;BME280;37865;51.304;9.536;2023-05-14T08:09:49;100103.16;;;18.80;62.40
51807;BME280;37865;51.304;9.536;2023-05-14T08:12:15;100096.06;;;19.06;61.82
51807;BME280;37865;51.304;9.536;2023-05-14T08:14:40;100095.84;;;19.35;60.88
51807;BME280;37865;51.304;9.536;2023-05-14T08:17:06;100091.38;;;19.52;59.87
51807;BME280;37865;51.304;9.536;2023-05-14T08:19:31;100095.59;;;19.50;59.22
51807;BME280;37865;51.304;9.536;2023-05-14T08:21:57;100087.28;;;19.63;59.00
51807;BME280;37865;51.304;9.536;2023-05-14T08:24:22;100090.19;;;19.85;58.35
51807;BME280;37865;51.304;9.536;2023-05-14T08:26:47;100083.97;;;20.16;57.71
51807;BME280;37865;51.304;9.536;2023-05-14T08:29:13;100088.06;;;20.45;56.47
51807;BME280;37865;51.304;9.536;2023-05-14T08:31:39;100083.38;;;20.68;56.10
51807;BME280;37865;51.304;9.536;2023-05-14T08:34:04;100081.75;;;20.67;55.17
51807;BME280;37865;51.304;9.536;2023-05-14T08:36:30;100080.16;;;20.39;54.72
51807;BME280;37865;51.304;9.536;2023-05-14T08:38:55;100083.25;;;20.37;55.02
51807;BME280;37865;51.304;9.536;2023-05-14T08:41:21;100078.00;;;20.49;54.62
51807;BME280;37865;51.304;9.536;2023-05-14T08:43:56;100069.06;;;20.74;54.27
51807;BME280;37865;51.304;9.536;2023-05-14T08:46:26;100073.56;;;21.06;53.59
51807;BME280;37865;51.304;9.536;2023-05-14T08:48:58;100065.09;;;21.11;52.82
51807;BME280;37865;51.304;9.536;2023-05-14T08:51:25;100061.06;;;20.95;52.89
51807;BME280;37865;51.304;9.536;2023-05-14T08:53:51;100055.53;;;20.95;52.72
51807;BME280;37865;51.304;9.536;2023-05-14T08:56:17;100049.97;;;20.95;52.79
51807;BME280;37865;51.304;9.536;2023-05-14T08:58:43;100048.84;;;20.96;52.47
51807;BME280;37865;51.304;9.536;2023-05-14T09:01:09;100050.75;;;21.09;51.52
51807;BME280;37865;51.304;9.536;2023-05-14T09:03:34;100063.28;;;21.29;51.51
51807;BME280;37865;51.304;9.536;2023-05-14T09:06:00;100054.91;;;21.59;50.89
51807;BME280;37865;51.304;9.536;2023-05-14T09:08:27;100055.25;;;21.97;49.62
51807;BME280;37865;51.304;9.536;2023-05-14T09:10:52;100049.03;;;22.00;49.30
51807;BME280;37865;51.304;9.536;2023-05-14T09:13:17;100048.34;;;21.86;49.78
51807;BME280;37865;51.304;9.536;2023-05-14T09:15:44;100055.72;;;21.99;48.64
51807;BME280;37865;51.304;9.536;2023-05-14T09:18:10;100045.63;;;22.12;48.47
51807;BME280;37865;51.304;9.536;2023-05-14T09:20:36;100041.91;;;22.25;47.68
51807;BME280;37865;51.304;9.536;2023-05-14T09:23:02;100046.78;;;22.28;46.85
51807;BME280;37865;51.304;9.536;2023-05-14T09:25:31;100045.78;;;22.07;46.51
51807;BME280;37865;51.304;9.536;2023-05-14T09:27:57;100050.44;;;21.81;47.67
51807;BME280;37865;51.304;9.536;2023-05-14T09:30:23;100047.00;;;21.75;47.14
51807;BME280;37865;51.304;9.536;2023-05-14T09:32:52;100036.28;;;21.99;46.69
51807;BME280;37865;51.304;9.536;2023-05-14T09:35:20;100036.81;;;22.44;45.83
51807;BME280;37865;51.304;9.536;2023-05-14T09:37:50;100030.16;;;22.62;45.21
51807;BME280;37865;51.304;9.536;2023-05-14T09:40:17;100022.94;;;22.44;44.89
51807;BME280;37865;51.304;9.536;2023-05-14T09:42:43;100024.75;;;22.23;45.83
51807;BME280;37865;51.304;9.536;2023-05-14T09:45:09;100025.72;;;22.18;45.74
51807;BME280;37865;51.304;9.536;2023-05-14T09:47:38;100035.19;;;22.34;45.76
51807;BME280;37865;51.304;9.536;2023-05-14T09:50:04;100027.03;;;22.47;45.38
51807;BME280;37865;51.304;9.536;2023-05-14T09:52:30;100031.78;;;22.80;45.99
51807;BME280;37865;51.304;9.536;2023-05-14T09:54:55;100014.59;;;22.95;45.57
51807;BME280;37865;51.304;9.536;2023-05-14T09:57:21;100016.53;;;23.03;44.95
51807;BME280;37865;51.304;9.536;2023-05-14T09:59:46;100015.78;;;23.41;44.69
51807;BME280;37865;51.304;9.536;2023-05-14T10:02:23;100012.19;;;23.69;43.04
51807;BME280;37865;51.304;9.536;2023-05-14T10:04:51;100004.63;;;23.78;42.61
51807;BME280;37865;51.304;9.536;2023-05-14T10:07:21;99996.63;;;23.97;42.68
51807;BME280;37865;51.304;9.536;2023-05-14T10:09:47;100000.50;;;24.34;41.83
51807;BME280;37865;51.304;9.536;2023-05-14T10:12:15;99996.28;;;24.49;40.85
51807;BME280;37865;51.304;9.536;2023-05-14T10:14:47;99990.41;;;24.42;40.58
51807;BME280;37865;51.304;9.536;2023-05-14T10:17:15;99996.75;;;24.30;41.00
51807;BME280;37865;51.304;9.536;2023-05-14T10:19:49;99993.97;;;24.10;41.24
51807;BME280;37865;51.304;9.536;2023-05-14T10:22:18;99995.53;;;23.90;41.59
51807;BME280;37865;51.304;9.536;2023-05-14T10:24:46;100001.59;;;23.63;40.79
51807;BME280;37865;51.304;9.536;2023-05-14T10:27:14;99993.69;;;23.27;40.83
51807;BME280;37865;51.304;9.536;2023-05-14T10:29:50;99988.84;;;23.07;41.39
51807;BME280;37865;51.304;9.536;2023-05-14T10:32:19;99985.09;;;23.58;41.20
51807;BME280;37865;51.304;9.536;2023-05-14T10:34:44;99979.56;;;24.08;41.26
51807;BME280;37865;51.304;9.536;2023-05-14T10:37:17;99976.41;;;24.50;40.03
51807;BME280;37865;51.304;9.536;2023-05-14T10:42:17;99980.69;;;24.07;39.81
51807;BME280;37865;51.304;9.536;2023-05-14T10:44:52;99977.97;;;23.69;40.54
51807;BME280;37865;51.304;9.536;2023-05-14T10:47:19;99980.06;;;23.43;41.18
51807;BME280;37865;51.304;9.536;2023-05-14T10:49:45;99971.63;;;23.22;41.21
51807;BME280;37865;51.304;9.536;2023-05-14T10:52:15;99971.66;;;23.13;41.11
51807;BME280;37865;51.304;9.536;2023-05-14T10:54:54;99967.09;;;23.09;41.36
51807;BME280;37865;51.304;9.536;2023-05-14T10:57:22;99962.28;;;23.35;40.71
51807;BME280;37865;51.304;9.536;2023-05-14T10:59:50;99960.63;;;23.92;40.16
51807;BME280;37865;51.304;9.536;2023-05-14T11:02:24;99951.22;;;24.59;39.34
51807;BME280;37865;51.304;9.536;2023-05-14T11:05:07;99946.66;;;25.20;38.78
51807;BME280;37865;51.304;9.536;2023-05-14T11:07:37;99939.06;;;25.81;37.42
51807;BME280;37865;51.304;9.536;2023-05-14T11:10:10;99937.53;;;26.19;36.33
51807;BME280;37865;51.304;9.536;2023-05-14T11:12:38;99929.03;;;26.71;34.63
51807;BME280;37865;51.304;9.536;2023-05-14T11:15:06;99925.75;;;27.13;34.67
51807;BME280;37865;51.304;9.536;2023-05-14T11:17:34;99937.41;;;27.46;34.06
51807;BME280;37865;51.304;9.536;2023-05-14T11:19:59;99931.84;;;27.80;32.85
51807;BME280;37865;51.304;9.536;2023-05-14T11:22:25;99915.81;;;27.97;31.59
51807;BME280;37865;51.304;9.536;2023-05-14T11:24:51;99914.50;;;27.75;31.61
51807;BME280;37865;51.304;9.536;2023-05-14T11:27:17;99913.75;;;27.43;32.31
51807;BME280;37865;51.304;9.536;2023-05-14T11:29:44;99911.97;;;27.70;31.72
51807;BME280;37865;51.304;9.536;2023-05-14T11:32:10;99909.28;;;27.93;33.15
51807;BME280;37865;51.304;9.536;2023-05-14T11:34:36;99903.50;;;28.01;32.41
51807;BME280;37865;51.304;9.536;2023-05-14T11:37:05;99896.34;;;28.04;31.71
51807;BME280;37865;51.304;9.536;2023-05-14T11:39:31;99895.25;;;28.08;31.75
51807;BME280;37865;51.304;9.536;2023-05-14T11:42:17;99897.84;;;27.82;32.20
51807;BME280;37865;51.304;9.536;2023-05-14T11:44:48;99887.34;;;28.14;31.38
51807;BME280;37865;51.304;9.536;2023-05-14T11:47:13;99892.44;;;28.08;31.28
51807;BME280;37865;51.304;9.536;2023-05-14T11:49:39;99877.50;;;27.85;30.88
51807;BME280;37865;51.304;9.536;2023-05-14T11:52:06;99880.38;;;27.88;31.08
51807;BME280;37865;51.304;9.536;2023-05-14T11:54:32;99881.00;;;27.98;30.90
51807;BME280;37865;51.304;9.536;2023-05-14T11:56:59;99876.63;;;27.65;31.15
51807;BME280;37865;51.304;9.536;2023-05-14T11:59:27;99877.41;;;27.16;32.09
51807;BME280;37865;51.304;9.536;2023-05-14T12:01:53;99873.41;;;26.70;32.22
51807;BME280;37865;51.304;9.536;2023-05-14T12:04:19;99875.56;;;26.17;33.67
51807;BME280;37865;51.304;9.536;2023-05-14T12:06:48;99893.25;;;25.58;34.71
51807;BME280;37865;51.304;9.536;2023-05-14T12:09:17;99882.09;;;24.97;35.82
51807;BME280;37865;51.304;9.536;2023-05-14T12:11:47;99878.16;;;24.53;37.61
51807;BME280;37865;51.304;9.536;2023-05-14T12:14:22;99883.00;;;24.12;39.33
51807;BME280;37865;51.304;9.536;2023-05-14T12:16:48;99884.38;;;23.35;43.18
51807;BME280;37865;51.304;9.536;2023-05-14T12:19:16;99880.66;;;22.76;45.14
51807;BME280;37865;51.304;9.536;2023-05-14T12:21:42;99874.41;;;22.24;46.97
51807;BME280;37865;51.304;9.536;2023-05-14T12:24:12;99874.72;;;21.80;47.10
51807;BME280;37865;51.304;9.536;2023-05-14T12:26:38;99869.97;;;21.55;47.69
51807;BME280;37865;51.304;9.536;2023-05-14T12:29:04;99877.25;;;21.34;48.27
51807;BME280;37865;51.304;9.536;2023-05-14T12:31:33;99868.31;;;21.37;47.98
51807;BME280;37865;51.304;9.536;2023-05-14T12:33:59;99866.06;;;21.56;48.39
51807;BME280;37865;51.304;9.536;2023-05-14T12:36:24;99871.47;;;21.87;47.24
51807;BME280;37865;51.304;9.536;2023-05-14T12:38:52;99857.72;;;22.24;45.97
51807;BME280;37865;51.304;9.536;2023-05-14T12:41:20;99862.78;;;22.86;43.58
51807;BME280;37865;51.304;9.536;2023-05-14T12:43:46;99854.88;;;23.34;42.54
51807;BME280;37865;51.304;9.536;2023-05-14T12:46:13;99850.69;;;23.90;40.14
51807;BME280;37865;51.304;9.536;2023-05-14T12:48:38;99853.00;;;24.41;38.48
51807;BME280;37865;51.304;9.536;2023-05-14T12:51:03;99849.41;;;24.98;38.38